Terminal Aerodrome Forecast
Issued by NWS Cleveland, OH

Home | Current Version | Previous Version | Graphics & Text | Print | Product List | Glossary On
Versions: 1 2 3 4 5 6 7 8 9 10 11 12 13 14 15 16 17 18
000
FTUS41 KCLE 260200 AAA
TAFYNG
TAF AMD
KYNG 260258Z 2603/2624 03006KT P6SM BKN120
     FM261300 05006KT 3SM -SN OVC025
     FM261400 03008KT 1 1/2SM -SN BR OVC015
     FM262200 01008KT 3SM -SN BR OVC015=

USA.gov is the U.S. government's official web portal to all federal, state and local government web resources and services.